Time;durP1;ratioP1;P1;durP2;ratioP2;P2;SDS_P1;SDS_P2;PMS_P1;PMS_P2;Temp;Humidity;BMP_temperature;BMP_pressure;BME280_temperature;BME280_humidity;BME280_pressure;Samples;Min_cycle;Max_cycle;Signal;HPM_P1;HPM_P2
2022/08/22 00:00:22;;;;;;;1.67;0.73;;;;;;;21.87;80.31;100940.41;4962358;28;20027;-67
2022/08/22 00:02:53;;;;;;;2.20;1.08;;;;;;;21.85;79.73;100940.84;4971887;28;20034;-67
2022/08/22 00:05:42;;;;;;;2.88;1.15;;;;;;;21.83;79.30;100931.50;4973479;28;20042;-67
2022/08/22 00:08:22;;;;;;;1.92;1.00;;;;;;;21.73;79.86;100941.47;4972415;28;20114;-67
2022/08/22 00:11:02;;;;;;;2.08;0.93;;;;;;;21.75;79.99;100946.50;4961757;28;20054;-67
2022/08/22 00:13:52;;;;;;;4.88;1.33;;;;;;;21.69;80.13;100942.72;4966671;28;20034;-66
2022/08/22 00:16:31;;;;;;;1.55;1.15;;;;;;;21.77;80.46;100944.91;4972922;28;20085;-67
2022/08/22 00:19:22;;;;;;;1.52;0.90;;;;;;;21.72;81.12;100945.38;4948761;28;20130;-66
2022/08/22 00:22:19;;;;;;;3.30;1.30;;;;;;;21.81;80.51;100947.59;4966327;28;20038;-66
2022/08/22 00:24:53;;;;;;;2.15;1.05;;;;;;;21.76;80.38;100945.28;4962746;28;20043;-66
2022/08/22 00:27:36;;;;;;;2.38;1.50;;;;;;;21.68;80.68;100949.41;4972182;28;20043;-66
2022/08/22 00:30:15;;;;;;;1.83;0.80;;;;;;;21.64;81.14;100951.44;4970777;28;20101;-65
2022/08/22 00:32:55;;;;;;;2.08;0.93;;;;;;;21.58;81.19;100953.13;4967507;28;20434;-66
2022/08/22 00:35:35;;;;;;;1.23;0.93;;;;;;;21.62;81.51;100953.84;4973346;28;20130;-65
2022/08/22 00:38:25;;;;;;;1.23;1.10;;;;;;;21.53;81.43;100949.69;4966641;28;20039;-65
2022/08/22 00:41:23;;;;;;;2.72;1.15;;;;;;;21.44;82.16;100954.97;4971676;28;20534;-65
2022/08/22 00:44:36;;;;;;;1.67;0.82;;;;;;;21.41;82.17;100950.31;4969402;28;20747;-65
2022/08/22 00:47:24;;;;;;;1.27;0.85;;;;;;;21.47;82.06;100953.31;4969715;28;20411;-66
2022/08/22 00:50:19;;;;;;;3.90;1.33;;;;;;;21.52;82.57;100963.81;4973196;28;20049;-66
2022/08/22 00:52:59;;;;;;;2.70;0.90;;;;;;;21.55;82.15;100962.97;4968571;28;20423;-65
2022/08/22 00:55:51;;;;;;;2.70;1.17;;;;;;;21.55;82.85;100955.53;4972773;28;20038;-67
2022/08/22 00:58:25;;;;;;;3.45;1.08;;;;;;;21.48;83.22;100955.66;4953557;28;20069;-64
2022/08/22 01:01:01;;;;;;;5.82;1.23;;;;;;;21.51;83.16;100957.56;4972003;28;20030;-65
2022/08/22 01:03:45;;;;;;;3.58;1.10;;;;;;;21.61;82.63;100963.25;4961781;28;20030;-65
2022/08/22 01:06:29;;;;;;;3.13;1.45;;;;;;;21.58;82.47;100950.38;4970556;28;20042;-65
2022/08/22 01:09:13;;;;;;;1.73;0.93;;;;;;;21.64;82.51;100956.94;4961591;28;20372;-65
2022/08/22 01:11:56;;;;;;;1.75;1.13;;;;;;;21.61;82.41;100957.75;4971694;28;20049;-66
2022/08/22 01:14:42;;;;;;;5.13;1.33;;;;;;;21.62;83.03;100954.63;4970158;28;20027;-65
2022/08/22 01:17:15;;;;;;;1.88;0.90;;;;;;;21.56;82.86;100948.81;4971217;28;20030;-66
2022/08/22 01:20:09;;;;;;;5.10;1.20;;;;;;;21.54;83.18;100962.19;4967074;28;20039;-65
2022/08/22 01:22:53;;;;;;;2.33;0.85;;;;;;;21.57;83.55;100955.09;4964668;28;20113;-65
2022/08/22 01:25:37;;;;;;;3.25;1.10;;;;;;;21.73;82.79;100952.44;4971160;28;20085;-65
2022/08/22 01:28:43;;;;;;;2.78;0.98;;;;;;;21.78;82.42;100953.88;4971524;28;20035;-66
2022/08/22 01:31:29;;;;;;;2.88;1.20;;;;;;;21.74;82.11;100953.19;4930538;28;20122;-66
2022/08/22 01:34:28;;;;;;;5.30;1.48;;;;;;;21.60;82.44;100951.53;4968437;28;20158;-66
2022/08/22 01:37:31;;;;;;;1.27;0.98;;;;;;;21.57;83.06;100952.34;4967586;28;20499;-66
2022/08/22 01:40:03;;;;;;;3.03;1.17;;;;;;;21.66;82.33;100954.53;4971079;28;20031;-66
2022/08/22 01:42:39;;;;;;;2.13;1.17;;;;;;;21.70;81.67;100955.25;4972392;28;20042;-66
2022/08/22 01:45:18;;;;;;;4.00;1.25;;;;;;;21.65;82.02;100942.78;4947087;28;20046;-66
2022/08/22 01:47:49;;;;;;;4.65;1.20;;;;;;;21.69;82.26;100950.94;4971001;28;20066;-66
2022/08/22 01:50:24;;;;;;;2.38;1.10;;;;;;;21.61;82.31;100953.06;4969571;28;20391;-66
2022/08/22 01:53:02;;;;;;;3.35;0.90;;;;;;;21.58;82.64;100943.69;4972060;28;20035;-66
2022/08/22 01:56:10;;;;;;;3.78;0.80;;;;;;;21.74;82.15;100944.97;4963865;28;20049;-67
2022/08/22 01:58:43;;;;;;;3.78;1.13;;;;;;;21.69;82.74;100945.47;4967840;28;20058;-65
2022/08/22 02:01:46;;;;;;;5.78;1.35;;;;;;;21.73;82.23;100943.41;4971123;28;20035;-66
2022/08/22 02:04:20;;;;;;;3.03;1.00;;;;;;;21.78;82.19;100951.91;4969878;28;20031;-66
2022/08/22 02:07:19;;;;;;;2.53;1.10;;;;;;;21.75;82.34;100946.50;4965593;28;20038;-66
2022/08/22 02:10:05;;;;;;;4.50;1.20;;;;;;;21.76;82.27;100946.09;4971996;28;20062;-66
2022/08/22 02:12:43;;;;;;;4.70;1.30;;;;;;;21.82;82.00;100946.38;4962663;28;20039;-67
2022/08/22 02:15:39;;;;;;;2.35;1.00;;;;;;;21.73;82.31;100948.91;4971070;28;20049;-65
2022/08/22 02:18:05;;;;;;;1.95;0.93;;;;;;;21.58;82.90;100954.66;4970785;28;20106;-66
2022/08/22 02:20:56;;;;;;;4.60;1.30;;;;;;;21.55;83.11;100949.25;4967090;28;20117;-66
2022/08/22 02:23:29;;;;;;;3.78;1.60;;;;;;;21.49;83.29;100950.94;4971553;28;20047;-66
2022/08/22 02:26:00;;;;;;;5.00;1.02;;;;;;;21.41;83.28;100942.09;4963430;28;20487;-66
2022/08/22 02:28:44;;;;;;;;;;;;;;;21.44;83.75;100949.47;4971525;28;20053;-66
2022/08/22 02:31:20;;;;;;;1.42;0.82;;;;;;;21.53;83.81;100949.69;4968400;28;19922;-65
2022/08/22 02:33:57;;;;;;;5.35;1.30;;;;;;;21.50;83.15;100953.25;4966337;28;20035;-66
2022/08/22 02:36:33;;;;;;;2.50;0.90;;;;;;;21.50;83.99;100953.25;4970506;28;20031;-66
2022/08/22 02:39:16;;;;;;;3.45;1.13;;;;;;;21.54;83.66;100953.22;4971632;28;20039;-65
2022/08/22 02:41:57;;;;;;;4.97;1.50;;;;;;;21.41;84.15;100950.31;4969159;28;20034;-66
2022/08/22 02:44:31;;;;;;;3.58;0.98;;;;;;;21.40;84.88;100957.00;4975203;28;20039;-65
2022/08/22 02:47:29;;;;;;;2.38;1.15;;;;;;;21.32;84.63;100949.31;4956268;28;20126;-66
2022/08/22 02:50:01;;;;;;;2.05;1.13;;;;;;;21.35;84.20;100945.75;4969698;28;20088;-65
2022/08/22 02:52:47;;;;;;;4.30;1.10;;;;;;;21.25;84.76;100952.94;4968819;28;21585;-66
2022/08/22 02:55:18;;;;;;;3.47;1.38;;;;;;;21.38;84.49;100942.94;4956726;28;20130;-67
2022/08/22 02:58:02;;;;;;;2.03;1.30;;;;;;;21.40;84.85;100948.00;4970278;28;20042;-67
2022/08/22 03:00:40;;;;;;;1.33;1.23;;;;;;;21.40;84.30;100942.50;4973866;28;20039;-67
2022/08/22 03:03:28;;;;;;;2.63;1.23;;;;;;;21.43;84.69;100942.44;4965140;28;20118;-66
2022/08/22 03:06:06;;;;;;;2.00;0.70;;;;;;;21.48;85.10;100961.16;4970819;28;20066;-67
2022/08/22 03:08:59;;;;;;;3.00;0.90;;;;;;;21.48;84.47;100952.16;4968861;28;20089;-67
2022/08/22 03:11:34;;;;;;;1.35;1.05;;;;;;;21.43;84.98;100950.66;4948244;28;20491;-67
2022/08/22 03:14:19;;;;;;;3.33;1.15;;;;;;;21.38;85.04;100944.91;4971918;28;20042;-67
2022/08/22 03:16:48;;;;;;;2.38;1.05;;;;;;;21.44;84.71;100957.72;4969741;28;20423;-68
2022/08/22 03:19:48;;;;;;;6.32;1.20;;;;;;;21.27;85.14;100953.31;4972699;28;20074;-67
2022/08/22 03:22:19;;;;;;;3.35;1.27;;;;;;;21.31;85.12;100951.28;4970852;28;20042;-68
2022/08/22 03:25:38;;;;;;;3.50;1.13;;;;;;;21.45;85.20;100948.28;4973793;28;20046;-67
2022/08/22 03:28:46;;;;;;;5.82;1.40;;;;;;;21.41;85.24;100944.81;4969319;28;20480;-65
2022/08/22 03:31:20;;;;;;;3.90;1.60;;;;;;;21.31;85.23;100950.53;4930866;29;20043;-67
2022/08/22 03:34:22;;;;;;;3.78;1.10;;;;;;;21.28;85.45;100943.13;4960104;28;20463;-66
2022/08/22 03:37:15;;;;;;;5.68;1.15;;;;;;;21.35;85.17;100951.25;4965819;28;20037;-66
2022/08/22 03:39:49;;;;;;;3.25;1.27;;;;;;;21.37;85.59;100946.06;4971622;28;20034;-65
2022/08/22 03:42:16;;;;;;;2.28;1.10;;;;;;;21.38;85.36;100956.66;4974662;28;20046;-66
2022/08/22 03:44:48;;;;;;;3.85;1.73;;;;;;;21.39;85.05;100949.94;4968158;28;20035;-66
2022/08/22 03:47:34;;;;;;;2.00;0.90;;;;;;;21.31;85.56;100956.00;4972886;28;20396;-66
2022/08/22 03:50:17;;;;;;;5.18;1.13;;;;;;;21.27;85.69;100942.34;4974209;28;20039;-65
2022/08/22 03:53:13;;;;;;;6.93;1.10;;;;;;;21.39;85.62;100960.13;4961838;28;20035;-66
2022/08/22 03:55:53;;;;;;;1.73;1.08;;;;;;;21.39;85.41;100954.66;4955201;29;20696;-66
2022/08/22 03:58:21;;;;;;;2.75;1.48;;;;;;;21.48;85.29;100963.91;4955912;29;20415;-65
2022/08/22 04:01:15;;;;;;;1.88;1.30;;;;;;;21.46;84.46;100960.00;4954883;28;20035;-65
2022/08/22 04:03:58;;;;;;;1.38;1.00;;;;;;;21.39;85.08;100957.41;4955371;29;20042;-66
2022/08/22 04:06:46;;;;;;;1.92;1.05;;;;;;;21.37;85.20;100959.78;4959974;28;20070;-65
2022/08/22 04:09:22;;;;;;;3.15;1.42;;;;;;;21.30;85.51;100955.22;4974095;28;20046;-66
2022/08/22 04:12:29;;;;;;;2.10;1.15;;;;;;;21.30;84.88;100960.72;4966543;28;20538;-66
2022/08/22 04:15:11;;;;;;;3.25;1.35;;;;;;;21.33;84.69;100957.13;4954938;29;20032;-66
2022/08/22 04:17:52;;;;;;;5.20;1.23;;;;;;;21.21;85.75;100965.19;4954533;29;20070;-66
2022/08/22 04:20:43;;;;;;;2.25;1.20;;;;;;;21.24;85.97;100964.34;4954466;28;20066;-65
2022/08/22 04:23:42;;;;;;;3.75;1.20;;;;;;;21.21;85.66;100963.22;4954961;29;20039;-68
2022/08/22 04:26:40;;;;;;;6.68;1.40;;;;;;;21.23;85.32;100957.31;4954386;29;20070;-66
2022/08/22 04:29:14;;;;;;;3.40;1.15;;;;;;;21.17;86.37;100967.22;4955386;28;20053;-66
2022/08/22 04:31:52;;;;;;;6.35;1.30;;;;;;;21.10;86.39;100959.13;4955823;28;20050;-65
2022/08/22 04:34:27;;;;;;;4.00;1.58;;;;;;;21.13;86.69;100966.50;4973383;28;20074;-66
2022/08/22 04:37:03;;;;;;;5.65;1.60;;;;;;;21.16;86.43;100966.44;4973327;28;20080;-66
2022/08/22 04:39:55;;;;;;;6.00;1.15;;;;;;;21.06;86.80;100972.13;4970893;28;20122;-64
2022/08/22 04:42:33;;;;;;;4.90;1.13;;;;;;;21.11;86.90;100975.16;5006356;23;20057;-67
2022/08/22 04:45:08;;;;;;;5.32;1.45;;;;;;;21.30;86.27;100976.38;5029181;28;20068;-67
2022/08/22 04:47:42;;;;;;;4.53;1.10;;;;;;;21.36;86.19;100986.44;5016427;28;20041;-67
2022/08/22 04:50:08;;;;;;;2.78;1.00;;;;;;;21.27;86.45;100969.75;5019683;28;20029;-67
2022/08/22 04:52:51;;;;;;;3.08;1.40;;;;;;;21.29;86.18;100983.81;5019456;28;20494;-67
2022/08/22 04:55:37;;;;;;;2.67;1.00;;;;;;;21.32;86.76;100982.97;5032528;28;20048;-67
2022/08/22 04:58:24;;;;;;;5.45;1.40;;;;;;;21.44;86.16;100987.06;5032083;28;20040;-67
2022/08/22 05:01:12;;;;;;;2.05;1.23;;;;;;;21.40;85.91;100989.09;5021238;28;20044;-67
2022/08/22 05:03:44;;;;;;;2.35;1.20;;;;;;;21.42;86.72;100989.47;5024231;28;20076;-67
2022/08/22 05:06:12;;;;;;;5.65;1.15;;;;;;;21.37;86.65;100987.97;5031367;28;20033;-67
2022/08/22 05:08:40;;;;;;;3.22;1.30;;;;;;;21.38;86.95;100999.72;5027080;28;20462;-67
2022/08/22 05:11:08;;;;;;;1.70;1.30;;;;;;;21.31;87.37;100997.88;5018866;28;20384;-67
2022/08/22 05:13:43;;;;;;;2.75;1.10;;;;;;;21.40;87.09;100994.59;5030976;28;20033;-67
2022/08/22 05:16:35;;;;;;;1.42;0.90;;;;;;;21.41;86.59;100999.66;5030760;28;20033;-68
2022/08/22 05:19:16;;;;;;;1.20;1.08;;;;;;;21.41;86.69;101010.59;5027684;28;20041;-67
2022/08/22 05:21:45;;;;;;;3.90;1.23;;;;;;;21.40;86.94;101009.06;5023578;28;20120;-68
2022/08/22 05:24:18;;;;;;;2.38;1.17;;;;;;;21.33;87.10;101011.16;5021826;28;20390;-68
2022/08/22 05:26:49;;;;;;;2.33;1.20;;;;;;;21.46;86.55;101015.63;5029962;28;20026;-68
2022/08/22 05:29:20;;;;;;;2.80;1.00;;;;;;;21.58;86.02;101014.22;5031394;28;20375;-67
2022/08/22 05:31:56;;;;;;;3.97;1.23;;;;;;;21.63;85.51;101021.97;5023199;28;20041;-67
2022/08/22 05:34:27;;;;;;;1.92;1.08;;;;;;;21.63;85.02;101024.69;5018902;28;20080;-68
2022/08/22 05:37:19;;;;;;;3.78;1.35;;;;;;;21.75;84.28;101013.09;5031085;28;20033;-68
2022/08/22 05:39:50;;;;;;;1.60;0.80;;;;;;;21.76;84.81;101016.59;5029172;28;20041;-68
2022/08/22 05:42:30;;;;;;;1.30;0.90;;;;;;;21.72;84.54;101018.66;5030873;28;20044;-68
2022/08/22 05:44:56;;;;;;;3.63;1.15;;;;;;;21.73;84.87;101011.97;5031718;28;20106;-68
2022/08/22 05:47:27;;;;;;;3.53;1.17;;;;;;;21.85;84.52;101011.38;5013264;28;20076;-67
2022/08/22 05:49:57;;;;;;;;;;;;;;;21.91;83.98;101020.66;5013481;28;20498;-68
2022/08/22 05:52:48;;;;;;;2.55;0.80;;;;;;;22.01;83.96;101025.16;5029785;28;19913;-68
2022/08/22 05:55:49;;;;;;;3.70;1.10;;;;;;;22.08;83.37;101020.31;5027016;28;20042;-68
2022/08/22 05:58:45;;;;;;;3.13;2.15;;;;;;;22.18;83.10;101029.50;5028757;28;20091;-67
2022/08/22 06:01:30;;;;;;;3.45;1.55;;;;;;;22.22;82.85;101021.97;5030989;28;20087;-68
2022/08/22 06:04:19;;;;;;;2.70;1.40;;;;;;;22.35;82.41;101020.09;5024857;28;20034;-68
2022/08/22 06:06:59;;;;;;;5.38;1.10;;;;;;;22.44;82.30;101020.28;5010878;28;20064;-68
2022/08/22 06:09:34;;;;;;;2.28;1.17;;;;;;;22.57;81.53;101032.19;5010493;28;20494;-68
2022/08/22 06:12:05;;;;;;;2.20;1.20;;;;;;;22.48;81.60;101026.47;5006228;28;20036;-68
2022/08/22 06:14:56;;;;;;;2.90;1.20;;;;;;;22.67;81.65;101027.63;5030855;28;20041;-69
2022/08/22 06:17:30;;;;;;;3.58;1.00;;;;;;;22.62;81.50;101028.94;5030417;28;20026;-68
2022/08/22 06:19:57;;;;;;;2.40;1.38;;;;;;;22.79;80.75;101035.22;4994749;28;20037;-70
2022/08/22 06:22:30;;;;;;;2.10;0.90;;;;;;;22.92;80.42;101034.09;5011003;28;20121;-68
2022/08/22 06:25:05;;;;;;;2.63;0.90;;;;;;;22.99;80.27;101039.44;5011485;28;20069;-68
2022/08/22 06:27:31;;;;;;;2.65;0.90;;;;;;;23.01;80.83;101042.53;5010085;28;20096;-69
2022/08/22 06:30:00;;;;;;;1.40;1.08;;;;;;;23.09;80.34;101043.88;5011242;28;20033;-69
2022/08/22 06:32:29;;;;;;;3.17;1.17;;;;;;;23.26;80.17;101044.66;5010910;28;20038;-69
2022/08/22 06:35:07;;;;;;;3.80;1.48;;;;;;;23.42;79.86;101039.16;5022621;28;20041;-68
2022/08/22 06:37:40;;;;;;;2.33;1.30;;;;;;;23.62;79.07;101048.03;5020131;28;20030;-69
2022/08/22 06:40:10;;;;;;;1.35;0.90;;;;;;;23.65;78.54;101049.16;5029506;28;20029;-69
2022/08/22 06:42:43;;;;;;;5.43;1.30;;;;;;;23.49;79.36;101049.97;5030745;28;20132;-69
2022/08/22 06:45:30;;;;;;;1.88;0.98;;;;;;;23.49;79.92;101060.19;5007022;28;20494;-68
2022/08/22 06:48:14;;;;;;;3.10;0.90;;;;;;;23.72;79.91;101058.00;5025184;28;20044;-68
2022/08/22 06:50:47;;;;;;;4.65;0.95;;;;;;;24.02;79.24;101051.31;5021195;28;20105;-68
2022/08/22 06:53:25;;;;;;;3.88;1.10;;;;;;;24.20;78.41;101059.03;5029458;28;20128;-68
2022/08/22 06:55:58;;;;;;;1.55;1.05;;;;;;;24.25;77.08;101051.00;5029739;28;20034;-68
2022/08/22 06:58:23;;;;;;;3.38;1.00;;;;;;;24.28;77.04;101060.34;5028652;28;20068;-68
2022/08/22 07:00:56;;;;;;;2.70;1.00;;;;;;;24.24;76.68;101060.47;5026118;28;20541;-69
2022/08/22 07:03:32;;;;;;;2.47;1.33;;;;;;;24.13;76.78;101066.31;5030421;28;20506;-69
2022/08/22 07:05:59;;;;;;;0.75;0.60;;;;;;;23.99;76.97;101060.38;5029785;28;20026;-68
2022/08/22 07:08:26;;;;;;;1.80;0.52;;;;;;;23.97;76.96;101068.31;5021276;28;20038;-69
2022/08/22 07:11:20;;;;;;;3.53;1.15;;;;;;;23.91;78.33;101062.56;5010466;28;20037;-68
2022/08/22 07:13:57;;;;;;;4.68;0.75;;;;;;;23.94;78.48;101063.69;5011029;28;20061;-69
2022/08/22 07:16:56;;;;;;;2.28;0.65;;;;;;;23.96;78.25;101070.28;5009693;28;20037;-69
2022/08/22 07:19:35;;;;;;;5.43;1.23;;;;;;;23.88;77.91;101065.41;5010438;28;20045;-69
2022/08/22 07:22:23;;;;;;;2.72;0.70;;;;;;;23.86;78.25;101073.34;5023885;28;20044;-69
2022/08/22 07:24:54;;;;;;;2.97;0.98;;;;;;;23.93;78.91;101073.91;5033158;28;20038;-69
2022/08/22 07:27:50;;;;;;;1.73;0.82;;;;;;;24.11;78.91;101079.72;5015823;28;20136;-69
2022/08/22 07:30:18;;;;;;;0.77;0.70;;;;;;;24.24;77.96;101077.00;5019897;28;20068;-68
2022/08/22 07:32:50;;;;;;;0.70;0.60;;;;;;;24.34;76.19;101080.63;5033425;28;20100;-68
2022/08/22 07:35:18;;;;;;;0.82;0.60;;;;;;;24.44;75.76;101079.56;5033366;28;20033;-68
2022/08/22 07:38:07;;;;;;;6.13;1.13;;;;;;;24.28;74.71;101083.16;5019896;28;20237;-68
2022/08/22 07:40:37;;;;;;;1.63;0.65;;;;;;;24.44;76.00;101088.59;5031839;28;20037;-68
2022/08/22 07:43:21;;;;;;;3.25;0.80;;;;;;;24.65;75.16;101081.66;5033652;28;20042;-68
2022/08/22 07:45:59;;;;;;;1.00;0.60;;;;;;;24.95;74.62;101087.41;5032568;28;20587;-69
2022/08/22 07:48:35;;;;;;;2.00;0.82;;;;;;;25.39;72.58;101090.34;5016836;28;20046;-68
2022/08/22 07:51:13;;;;;;;3.97;0.70;;;;;;;25.76;70.77;101095.00;5008668;28;20715;-68
2022/08/22 07:53:46;;;;;;;1.33;0.63;;;;;;;26.08;68.04;101099.38;5026364;28;20089;-69
2022/08/22 07:56:15;;;;;;;1.20;0.73;;;;;;;26.27;66.64;101103.81;5032077;28;20040;-68
2022/08/22 07:58:45;;;;;;;2.53;0.90;;;;;;;26.19;66.22;101100.53;5015899;28;20401;-68
2022/08/22 08:01:17;;;;;;;1.80;0.75;;;;;;;26.30;67.11;101100.94;5020487;28;20037;-68
2022/08/22 08:03:52;;;;;;;3.90;0.70;;;;;;;26.42;66.64;101093.78;5032621;28;20036;-68
2022/08/22 08:06:23;;;;;;;1.60;0.55;;;;;;;26.58;65.27;101099.06;5032589;28;20056;-69
2022/08/22 08:08:50;;;;;;;1.13;0.45;;;;;;;26.71;63.11;101103.31;5033513;28;20075;-67
2022/08/22 08:11:17;;;;;;;5.70;0.63;;;;;;;26.69;62.23;101089.16;5016436;28;20087;-68
2022/08/22 08:13:51;;;;;;;1.23;0.57;;;;;;;26.87;64.01;101096.78;5013190;28;20100;-68
2022/08/22 08:16:22;;;;;;;4.78;0.95;;;;;;;27.12;62.13;101098.56;4995105;28;20037;-67
2022/08/22 08:18:51;;;;;;;2.95;0.80;;;;;;;26.84;62.26;101091.38;5012995;28;20120;-68
2022/08/22 08:21:45;;;;;;;2.50;0.80;;;;;;;27.14;62.95;101087.81;5008888;28;20132;-68
2022/08/22 08:24:14;;;;;;;1.67;0.50;;;;;;;27.35;62.92;101089.72;5033464;28;20043;-68
2022/08/22 08:29:33;;;;;;;1.58;0.70;;;;;;;27.72;59.68;101091.25;5026282;28;20064;-68
2022/08/22 08:32:00;;;;;;;3.17;0.63;;;;;;;27.85;60.12;101086.34;5030776;28;20040;-68
2022/08/22 08:34:31;;;;;;;2.20;0.70;;;;;;;27.78;57.20;101080.34;5032310;28;20073;-68
2022/08/22 08:37:10;;;;;;;1.20;0.65;;;;;;;27.76;56.66;101083.56;5031761;28;20037;-68
2022/08/22 08:39:58;;;;;;;1.83;0.60;;;;;;;27.66;57.96;101085.56;5029496;28;20037;-68
2022/08/22 08:45:53;;;;;;;1.85;0.70;;;;;;;28.20;58.21;101086.78;5032567;28;20047;-68
2022/08/22 08:48:43;;;;;;;1.23;0.50;;;;;;;28.50;57.94;101089.31;4989872;28;20045;-68
2022/08/22 08:51:18;;;;;;;4.57;0.70;;;;;;;28.48;57.05;101083.47;5006349;28;20402;-67
2022/08/22 08:54:02;;;;;;;1.33;0.60;;;;;;;28.67;54.73;101080.66;5032199;28;20180;-68
2022/08/22 08:57:04;;;;;;;2.15;0.70;;;;;;;28.76;54.67;101077.84;5013543;28;20665;-68
2022/08/22 08:59:40;;;;;;;1.30;0.57;;;;;;;28.85;53.71;101075.00;5018270;28;20128;-68
2022/08/22 09:02:21;;;;;;;1.10;0.95;;;;;;;28.46;53.90;101072.06;5012236;28;20038;-69
2022/08/22 09:05:25;;;;;;;1.80;0.68;;;;;;;28.08;55.33;101069.09;5003421;28;20437;-68
2022/08/22 09:08:30;;;;;;;1.77;0.70;;;;;;;28.05;57.51;101063.72;5011867;28;20038;-69
2022/08/22 09:11:15;;;;;;;0.90;0.70;;;;;;;28.31;55.36;101071.22;5011925;28;20049;-68
2022/08/22 09:14:11;;;;;;;2.35;1.05;;;;;;;28.36;54.75;101073.34;4986344;28;20030;-68
2022/08/22 09:17:07;;;;;;;2.22;0.93;;;;;;;28.52;54.97;101061.13;5030771;28;20116;-69
2022/08/22 09:19:44;;;;;;;0.95;0.50;;;;;;;28.80;54.60;101061.78;5031837;28;20037;-69
2022/08/22 09:22:46;;;;;;;0.80;0.50;;;;;;;28.95;53.48;101055.09;5023963;28;20042;-68
2022/08/22 09:25:19;;;;;;;2.10;0.50;;;;;;;29.07;52.99;101065.19;5012136;28;20045;-67
2022/08/22 09:28:38;;;;;;;3.03;0.60;;;;;;;29.07;52.43;101064.41;5011139;28;20044;-68
2022/08/22 09:31:04;;;;;;;1.85;0.40;;;;;;;28.73;51.89;101059.34;4947077;29;20496;-68
2022/08/22 09:33:45;;;;;;;1.85;0.52;;;;;;;28.54;50.16;101055.91;5022120;28;20048;-68
2022/08/22 09:36:17;;;;;;;;;;;;;;;28.83;51.63;101049.75;5029154;28;20029;-68
2022/08/22 09:39:02;;;;;;;1.83;0.60;;;;;;;29.07;49.85;101048.53;5031604;28;19913;-68
2022/08/22 09:41:43;;;;;;;0.60;0.47;;;;;;;29.22;51.02;101062.50;5031141;28;20037;-69
2022/08/22 09:44:27;;;;;;;;;;;;;;;29.12;49.96;101049.88;5016089;28;20139;-68
2022/08/22 09:47:04;;;;;;;0.43;0.40;;;;;;;28.75;51.47;101048.56;5010620;28;19918;-68
2022/08/22 09:49:54;;;;;;;0.75;0.50;;;;;;;28.94;50.60;101053.53;5011755;28;20462;-68
2022/08/22 09:52:49;;;;;;;2.15;0.50;;;;;;;28.51;50.13;101046.47;5008755;28;20036;-68
2022/08/22 09:55:33;;;;;;;1.23;0.45;;;;;;;28.24;51.27;101054.13;5003496;28;20050;-68
2022/08/22 09:58:03;;;;;;;0.73;0.52;;;;;;;28.38;52.07;101048.69;5010950;28;20068;-68
2022/08/22 10:00:58;;;;;;;1.40;0.65;;;;;;;28.48;51.91;101041.88;5016474;28;20048;-68
2022/08/22 10:03:23;;;;;;;1.60;0.60;;;;;;;28.61;52.69;101038.16;5021121;28;20543;-68
2022/08/22 10:06:06;;;;;;;0.98;0.50;;;;;;;28.57;52.28;101038.34;5012431;28;20045;-68
2022/08/22 10:08:38;;;;;;;2.95;0.50;;;;;;;28.52;52.22;101033.38;5031487;28;20056;-68
2022/08/22 10:11:23;;;;;;;1.00;0.60;;;;;;;28.60;52.26;101031.84;5018326;28;20125;-68
2022/08/22 10:13:59;;;;;;;4.32;0.70;;;;;;;28.76;51.89;101025.16;5024706;28;20052;-69
2022/08/22 10:16:50;;;;;;;0.70;0.50;;;;;;;28.92;50.68;101030.28;5029913;28;20168;-68
2022/08/22 10:19:43;;;;;;;1.58;0.60;;;;;;;29.01;48.31;101033.00;5026283;28;20042;-68
2022/08/22 10:22:46;;;;;;;0.93;0.40;;;;;;;29.53;47.12;101028.78;5028838;28;20037;-68
2022/08/22 10:25:17;;;;;;;0.82;0.43;;;;;;;29.99;46.95;101033.47;5029806;28;20033;-68
2022/08/22 10:27:52;;;;;;;0.70;0.40;;;;;;;30.20;45.65;101035.06;5030256;28;20482;-68
2022/08/22 10:30:24;;;;;;;0.75;0.45;;;;;;;30.31;46.16;101036.53;5027141;28;20048;-68
2022/08/22 10:33:02;;;;;;;0.55;0.40;;;;;;;30.57;45.38;101029.84;5030748;28;20132;-68
2022/08/22 10:35:42;;;;;;;2.85;0.70;;;;;;;30.46;46.47;101032.47;5030503;28;20037;-69
2022/08/22 10:38:24;;;;;;;0.75;0.30;;;;;;;30.27;46.28;101042.28;5013751;28;20060;-68
2022/08/22 10:43:50;;;;;;;0.50;0.45;;;;;;;30.55;46.13;101023.25;5058364;28;20072;-65
2022/08/22 10:46:34;;;;;;;0.50;0.40;;;;;;;30.93;45.41;101023.06;5069798;28;20041;-65
2022/08/22 10:49:05;;;;;;;0.50;0.40;;;;;;;31.01;43.38;101024.94;5071225;28;20032;-65
2022/08/22 10:51:48;;;;;;;0.40;0.40;;;;;;;31.31;43.76;101025.56;5054725;28;20032;-66
2022/08/22 10:54:19;;;;;;;0.60;0.40;;;;;;;31.50;42.93;101026.81;5034246;28;20029;-65
2022/08/22 10:57:03;;;;;;;;;;;;;;;31.68;42.17;101020.94;5030310;28;20068;-66
2022/08/22 10:59:42;;;;;;;0.63;0.50;;;;;;;31.40;41.69;101016.34;5033404;28;20025;-66
2022/08/22 11:02:34;;;;;;;0.30;0.30;;;;;;;30.78;42.45;101025.84;5034575;28;20033;-66
2022/08/22 11:05:24;;;;;;;0.95;0.52;;;;;;;30.34;43.20;101021.66;5035788;28;20033;-66
2022/08/22 11:08:14;;;;;;;2.40;0.47;;;;;;;29.66;45.54;101015.38;5034560;28;20098;-65
2022/08/22 11:10:43;;;;;;;1.73;0.53;;;;;;;29.74;43.57;101024.91;5035266;28;20113;-65
2022/08/22 11:13:30;;;;;;;0.47;0.38;;;;;;;29.78;45.20;101028.25;5034335;28;20302;-65
2022/08/22 11:16:24;;;;;;;0.85;0.50;;;;;;;29.95;44.92;101024.53;5031924;28;20053;-66
2022/08/22 11:19:22;;;;;;;1.25;0.60;;;;;;;29.32;44.28;101022.31;5054778;28;20584;-66
2022/08/22 11:22:00;;;;;;;0.40;0.40;;;;;;;29.58;44.31;101017.78;5054087;28;20025;-66
2022/08/22 11:24:55;;;;;;;2.53;0.50;;;;;;;29.78;44.59;101015.16;5043216;28;20029;-65
2022/08/22 11:27:37;;;;;;;1.75;0.45;;;;;;;29.72;43.90;101013.50;5035149;28;20486;-65
2022/08/22 11:30:11;;;;;;;0.80;0.50;;;;;;;29.74;45.21;101005.47;5033891;28;20033;-65
2022/08/22 11:33:06;;;;;;;2.13;0.60;;;;;;;30.14;44.42;101014.75;5035686;28;20119;-65
2022/08/22 11:35:35;;;;;;;0.40;0.40;;;;;;;30.59;44.05;101012.69;5054013;28;20032;-66
2022/08/22 11:38:34;;;;;;;0.88;0.50;;;;;;;31.07;43.20;101008.28;5053659;28;20151;-65
2022/08/22 11:41:04;;;;;;;2.63;0.32;;;;;;;31.39;43.04;101015.56;5052891;28;20037;-67
2022/08/22 11:43:43;;;;;;;1.33;0.50;;;;;;;31.71;41.87;101006.00;5033903;28;20044;-67
2022/08/22 11:46:35;;;;;;;0.57;0.38;;;;;;;31.96;41.83;101008.03;5033082;28;20303;-67
2022/08/22 11:49:25;;;;;;;0.95;0.40;;;;;;;31.73;41.30;100997.16;5034166;28;20124;-66
2022/08/22 11:52:00;;;;;;;0.57;0.47;;;;;;;31.65;42.41;100999.59;5031325;28;20513;-65
2022/08/22 11:54:48;;;;;;;3.42;0.50;;;;;;;31.48;42.32;100995.91;5038351;28;20690;-65
2022/08/22 11:57:34;;;;;;;0.90;0.50;;;;;;;31.26;43.92;100998.44;5021416;28;20098;-66
2022/08/22 12:00:25;;;;;;;1.55;0.40;;;;;;;31.04;43.80;101000.94;5033064;28;20042;-65
2022/08/22 12:03:14;;;;;;;0.88;0.32;;;;;;;30.86;44.12;101003.97;5033120;28;20105;-66
2022/08/22 12:05:48;;;;;;;0.88;0.35;;;;;;;30.94;43.43;101002.31;5032424;28;20038;-66
2022/08/22 12:08:19;;;;;;;2.63;0.43;;;;;;;31.04;44.09;100998.91;5049747;28;20048;-66
2022/08/22 12:10:57;;;;;;;3.42;0.88;;;;;;;31.07;44.75;101002.72;5031573;28;20425;-66
2022/08/22 12:13:31;;;;;;;0.95;0.50;;;;;;;30.94;44.96;101005.09;5033641;28;20033;-66
2022/08/22 12:16:36;;;;;;;1.73;0.60;;;;;;;30.56;44.79;100992.19;5032877;28;20171;-65
2022/08/22 12:19:11;;;;;;;0.40;0.40;;;;;;;30.29;45.43;100995.31;5032942;28;20068;-66
2022/08/22 12:22:00;;;;;;;0.85;0.55;;;;;;;30.35;45.64;100987.81;5032220;28;20037;-65
2022/08/22 12:24:48;;;;;;;5.07;0.40;;;;;;;30.69;45.67;100983.50;5033011;28;20091;-67
2022/08/22 12:27:30;;;;;;;2.60;0.60;;;;;;;30.78;44.04;100997.25;5032321;28;20095;-66
2022/08/22 12:30:06;;;;;;;0.52;0.47;;;;;;;30.91;45.01;100987.34;5033051;28;20037;-69
2022/08/22 12:32:55;;;;;;;1.10;0.40;;;;;;;31.19;44.42;100981.34;5032704;28;20516;-66
2022/08/22 12:35:38;;;;;;;0.40;0.40;;;;;;;31.29;43.43;100989.06;5028416;28;20056;-65
2022/08/22 12:38:43;;;;;;;1.95;0.68;;;;;;;31.40;43.73;100978.06;5052653;28;20090;-67
2022/08/22 12:41:43;;;;;;;0.80;0.50;;;;;;;31.62;43.15;100981.09;5034429;28;20421;-66